createdAt,value
2019-03-08T00:01:17.624Z,3.30
2019-03-08T00:03:44.409Z,2.53
2019-03-08T00:06:16.728Z,6.30
2019-03-08T00:08:43.638Z,2.43
2019-03-08T00:11:10.686Z,2.50
2019-03-08T00:13:38.521Z,2.43
2019-03-08T00:16:05.150Z,3.20
2019-03-08T00:18:31.774Z,4.97
2019-03-08T00:21:00.344Z,5.83
2019-03-08T00:23:27.791Z,1.83
2019-03-08T00:25:54.645Z,2.10
2019-03-08T00:28:21.267Z,5.07
2019-03-08T00:30:48.226Z,2.20
2019-03-08T00:33:16.903Z,3.37
2019-03-08T00:35:43.881Z,1.77
2019-03-08T00:38:10.549Z,2.67
2019-03-08T00:40:37.223Z,4.00
2019-03-08T00:43:03.945Z,3.73
2019-03-08T00:45:30.794Z,4.13
2019-03-08T00:48:00.183Z,1.30
2019-03-08T00:50:26.759Z,1.70
2019-03-08T00:52:53.356Z,1.53
2019-03-08T00:55:20.060Z,2.17
2019-03-08T00:57:46.572Z,3.37
2019-03-08T01:00:15.418Z,1.97
2019-03-08T01:02:42.077Z,2.03
2019-03-08T01:05:11.056Z,5.40
2019-03-08T01:07:38.066Z,3.70
2019-03-08T01:10:08.584Z,2.33
2019-03-08T01:12:36.142Z,3.87
2019-03-08T01:15:06.236Z,3.03
2019-03-08T01:17:34.496Z,2.83
2019-03-08T01:20:01.356Z,4.00
2019-03-08T01:22:28.074Z,2.27
2019-03-08T01:24:54.750Z,4.90
2019-03-08T01:27:23.212Z,2.73
2019-03-08T01:29:50.138Z,3.70
2019-03-08T01:32:17.037Z,3.47
2019-03-08T01:34:43.685Z,3.80
2019-03-08T01:37:10.447Z,7.30
2019-03-08T01:39:37.251Z,6.77
2019-03-08T01:42:03.914Z,3.50
2019-03-08T01:44:30.645Z,3.53
2019-03-08T01:46:59.411Z,4.73
2019-03-08T01:49:26.007Z,5.77
2019-03-08T01:51:52.634Z,10.90
2019-03-08T01:54:19.394Z,6.17
2019-03-08T01:56:46.115Z,7.23
2019-03-08T01:59:12.708Z,3.90
2019-03-08T02:01:39.837Z,5.23
2019-03-08T02:04:09.861Z,5.60
2019-03-08T02:06:36.576Z,4.87
2019-03-08T02:09:04.480Z,5.77
2019-03-08T02:11:31.218Z,4.60
2019-03-08T02:13:57.842Z,10.13
2019-03-08T02:16:24.836Z,7.10
2019-03-08T02:18:51.486Z,9.90
2019-03-08T02:21:18.186Z,7.03
2019-03-08T02:23:44.906Z,7.97
2019-03-08T02:26:11.472Z,10.13
2019-03-08T02:28:38.116Z,9.97
2019-03-08T02:31:05.038Z,3.63
2019-03-08T02:33:31.834Z,5.33
2019-03-08T02:35:58.478Z,3.80
2019-03-08T02:38:25.427Z,3.70
2019-03-08T02:40:52.081Z,4.17
2019-03-08T02:43:18.780Z,6.80
2019-03-08T02:45:45.645Z,4.20
2019-03-08T02:48:12.611Z,6.80
2019-03-08T02:50:39.159Z,7.83
2019-03-08T02:53:05.885Z,3.90
2019-03-08T02:55:32.862Z,7.17
2019-03-08T02:58:00.812Z,6.27
2019-03-08T03:00:32.575Z,11.03
2019-03-08T03:02:59.200Z,8.57
2019-03-08T03:05:25.868Z,6.53
2019-03-08T03:07:52.560Z,9.87
2019-03-08T03:10:19.543Z,4.90
2019-03-08T03:12:46.424Z,4.80
2019-03-08T03:15:13.913Z,6.17
2019-03-08T03:17:40.462Z,6.30
2019-03-08T03:20:12.319Z,8.13
2019-03-08T03:22:40.381Z,7.57
2019-03-08T03:25:09.990Z,6.97
2019-03-08T03:27:36.640Z,5.57
2019-03-08T03:30:09.619Z,7.50
2019-03-08T03:32:36.297Z,8.50
2019-03-08T03:35:04.218Z,10.63
2019-03-08T03:37:32.714Z,5.17
2019-03-08T03:40:00.553Z,3.70
2019-03-08T03:42:28.262Z,5.73
2019-03-08T03:44:54.960Z,9.77
2019-03-08T03:47:22.439Z,7.00
2019-03-08T03:49:49.098Z,9.07
2019-03-08T03:52:16.164Z,6.97
2019-03-08T03:54:43.065Z,5.67
2019-03-08T03:57:09.932Z,8.63
2019-03-08T03:59:36.769Z,7.90
2019-03-08T04:02:03.406Z,5.40
2019-03-08T04:04:30.081Z,5.90
2019-03-08T04:06:56.769Z,5.03
2019-03-08T04:09:23.606Z,8.47
2019-03-08T04:11:50.242Z,8.27
2019-03-08T04:14:17.576Z,9.97
2019-03-08T04:16:44.270Z,3.83
2019-03-08T04:19:10.938Z,7.87
2019-03-08T04:21:38.009Z,11.00
2019-03-08T04:24:05.029Z,9.33
2019-03-08T04:26:31.755Z,11.40
2019-03-08T04:28:58.776Z,12.10
2019-03-08T04:31:25.687Z,7.47
2019-03-08T04:33:52.677Z,9.20
2019-03-08T04:36:19.819Z,6.47
2019-03-08T04:38:46.827Z,8.37
2019-03-08T04:41:17.990Z,14.33
2019-03-08T04:43:45.108Z,7.63
2019-03-08T04:46:14.039Z,9.03
2019-03-08T04:48:40.874Z,6.23
2019-03-08T04:51:10.664Z,11.17
2019-03-08T04:53:38.251Z,7.90
2019-03-08T04:56:05.281Z,7.43
2019-03-08T04:58:31.936Z,7.20
2019-03-08T05:00:58.654Z,19.03
2019-03-08T05:03:27.467Z,5.80
2019-03-08T05:05:54.944Z,8.27
2019-03-08T05:08:29.184Z,7.03
2019-03-08T05:10:55.952Z,13.37
2019-03-08T05:13:32.369Z,10.43
2019-03-08T05:16:00.029Z,8.17
2019-03-08T05:18:28.520Z,7.20
2019-03-08T05:20:56.723Z,11.77
2019-03-08T05:23:23.450Z,9.17
2019-03-08T05:25:50.213Z,7.17
2019-03-08T05:28:16.894Z,6.07
2019-03-08T05:30:46.696Z,11.23
2019-03-08T05:33:16.364Z,7.00
2019-03-08T05:35:44.210Z,13.30
2019-03-08T05:38:12.475Z,8.53
2019-03-08T05:40:40.880Z,7.27
2019-03-08T05:46:25.570Z,10.27
2019-03-08T05:51:50.023Z,10.40
2019-03-08T05:54:17.810Z,12.30
2019-03-08T05:56:48.393Z,10.37
2019-03-08T05:59:17.214Z,9.87
2019-03-08T06:04:39.811Z,11.87
2019-03-08T06:12:49.399Z,12.43
2019-03-08T06:15:20.739Z,8.87
2019-03-08T06:17:51.206Z,21.03
2019-03-08T06:20:19.234Z,11.37
2019-03-08T06:22:48.378Z,11.40
2019-03-08T06:28:21.366Z,10.57
2019-03-08T06:30:49.802Z,12.17
2019-03-08T06:33:20.845Z,9.37
2019-03-08T06:47:17.184Z,19.30
2019-03-08T06:50:54.079Z,11.10
2019-03-08T06:58:20.773Z,15.37
2019-03-08T07:00:57.695Z,18.63
2019-03-08T07:03:32.522Z,12.67
2019-03-08T07:06:12.831Z,12.67
2019-03-08T07:17:43.228Z,32.83
2019-03-08T08:33:29.716Z,9.77
2019-03-08T09:00:37.126Z,8.47
2019-03-08T09:03:30.221Z,11.60
2019-03-08T09:12:20.680Z,6.00
2019-03-08T09:20:57.717Z,10.70
2019-03-08T09:29:26.433Z,14.97
2019-03-08T09:32:12.833Z,11.03
2019-03-08T09:49:34.713Z,15.37
2019-03-08T09:55:31.163Z,10.77
2019-03-08T10:12:59.646Z,10.37
2019-03-08T10:18:54.769Z,10.27
2019-03-08T12:39:27.641Z,8.13
2019-03-08T12:42:14.562Z,7.27
2019-03-08T13:00:10.931Z,7.57
2019-03-08T14:21:40.414Z,4.27
2019-03-08T14:41:39.614Z,3.50
2019-03-08T15:26:07.470Z,3.70
2019-03-08T15:28:33.971Z,12.27
2019-03-08T15:31:00.633Z,2.07
2019-03-08T15:33:26.914Z,3.70
2019-03-08T15:35:53.415Z,1.50
2019-03-08T15:38:21.274Z,1.70
2019-03-08T15:40:48.860Z,1.33
2019-03-08T15:43:15.319Z,2.67
2019-03-08T15:45:44.474Z,1.60
2019-03-08T15:48:10.946Z,1.20
2019-03-08T15:50:38.753Z,3.17
2019-03-08T15:53:05.222Z,0.83
2019-03-08T15:55:31.725Z,1.73
2019-03-08T15:57:58.357Z,1.00
2019-03-08T16:00:24.835Z,1.97
2019-03-08T16:02:51.387Z,1.50
2019-03-08T16:05:19.018Z,0.80
2019-03-08T16:07:45.672Z,1.10
2019-03-08T16:10:19.525Z,0.43
2019-03-08T16:12:46.235Z,1.13
2019-03-08T16:15:14.099Z,2.60
2019-03-08T16:17:40.777Z,0.87
2019-03-08T16:20:16.580Z,0.87
2019-03-08T16:22:43.199Z,0.50
2019-03-08T16:25:11.662Z,1.43
2019-03-08T16:27:38.144Z,1.13
2019-03-08T16:30:14.866Z,0.90
2019-03-08T16:32:43.671Z,1.30
2019-03-08T16:35:10.041Z,1.10
2019-03-08T16:37:54.980Z,1.30
2019-03-08T16:40:25.117Z,1.70
2019-03-08T16:42:53.298Z,2.50
2019-03-08T16:45:36.403Z,1.33
2019-03-08T16:48:16.633Z,1.23
2019-03-08T16:50:47.542Z,2.47
2019-03-08T16:53:33.590Z,1.10
2019-03-08T16:56:07.670Z,1.27
2019-03-08T16:58:39.034Z,0.60
2019-03-08T17:01:16.330Z,0.90
2019-03-08T17:03:53.633Z,0.77
2019-03-08T17:06:39.698Z,2.00
2019-03-08T17:09:11.902Z,0.93
2019-03-08T17:11:43.070Z,0.90
2019-03-08T17:14:20.508Z,1.37
2019-03-08T17:16:54.840Z,1.10
2019-03-08T17:19:23.051Z,1.20
2019-03-08T17:21:57.094Z,1.80
2019-03-08T17:24:25.620Z,1.47
2019-03-08T17:26:56.501Z,1.40
2019-03-08T17:29:33.664Z,1.03
2019-03-08T17:32:20.028Z,1.43
2019-03-08T17:34:55.600Z,1.70
2019-03-08T17:37:38.943Z,1.50
2019-03-08T17:40:16.494Z,1.20
2019-03-08T17:42:51.801Z,1.23
2019-03-08T17:45:22.945Z,1.23
2019-03-08T17:48:00.351Z,1.37
2019-03-08T17:50:28.962Z,2.20
2019-03-08T17:52:58.222Z,1.80
2019-03-08T17:55:32.428Z,2.63
2019-03-08T17:58:08.721Z,2.37
2019-03-08T18:00:42.934Z,2.40
2019-03-08T18:03:11.383Z,2.50
2019-03-08T18:05:51.758Z,2.03
2019-03-08T18:08:33.143Z,1.80
2019-03-08T18:11:07.461Z,1.80
2019-03-08T18:13:38.705Z,1.77
2019-03-08T18:16:07.437Z,2.03
2019-03-08T18:18:51.845Z,1.50
2019-03-08T18:21:29.169Z,1.87
2019-03-08T18:24:03.762Z,3.40
2019-03-08T18:26:41.005Z,1.23
2019-03-08T18:29:25.520Z,1.17
2019-03-08T18:32:02.445Z,1.90
2019-03-08T18:34:30.845Z,1.23
2019-03-08T18:37:14.220Z,0.80
2019-03-08T18:40:00.865Z,1.27
2019-03-08T18:42:29.337Z,2.03
2019-03-08T18:45:03.363Z,1.53
2019-03-08T18:47:48.212Z,0.90
2019-03-08T18:50:22.507Z,2.47
2019-03-08T18:53:07.008Z,1.07
2019-03-08T18:55:50.182Z,1.40
2019-03-08T18:58:34.986Z,1.47
2019-03-08T19:01:20.187Z,1.63
2019-03-08T19:04:08.735Z,2.80
2019-03-08T19:06:44.498Z,1.10
2019-03-08T19:09:12.907Z,1.27
2019-03-08T19:11:41.360Z,1.47
2019-03-08T19:14:09.910Z,3.83
2019-03-08T19:16:54.582Z,0.80
2019-03-08T19:19:36.891Z,1.37
2019-03-08T19:22:10.995Z,1.67
2019-03-08T19:24:41.959Z,1.00
2019-03-08T19:27:26.901Z,1.73
2019-03-08T19:30:03.359Z,2.90
2019-03-08T19:32:31.928Z,1.43
2019-03-08T19:35:00.340Z,1.23
2019-03-08T19:37:31.626Z,1.43
2019-03-08T19:40:01.720Z,1.40
2019-03-08T19:42:30.155Z,2.43
2019-03-08T19:45:01.145Z,1.60
2019-03-08T19:47:41.231Z,2.33
2019-03-08T19:50:17.546Z,1.00
2019-03-08T19:53:02.291Z,1.03
2019-03-08T19:55:30.654Z,0.80
2019-03-08T19:57:59.167Z,1.70
2019-03-08T20:00:27.605Z,2.37
2019-03-08T20:02:56.012Z,3.23
2019-03-08T20:05:24.329Z,0.80
2019-03-08T20:07:55.653Z,0.80
2019-03-08T20:10:24.491Z,1.33
2019-03-08T20:13:09.123Z,1.13
2019-03-08T20:15:53.610Z,3.50
2019-03-08T20:18:22.231Z,3.33
2019-03-08T20:21:06.908Z,1.43
2019-03-08T20:23:37.855Z,1.97
2019-03-08T20:26:06.276Z,4.17
2019-03-08T20:28:40.287Z,2.57
2019-03-08T20:31:08.967Z,4.20
2019-03-08T20:33:55.339Z,1.10
2019-03-08T20:36:32.838Z,0.97
2019-03-08T20:39:06.742Z,0.83
2019-03-08T20:41:34.927Z,1.73
2019-03-08T20:44:09.247Z,0.73
2019-03-08T20:46:39.030Z,0.80
2019-03-08T20:49:07.949Z,0.97
2019-03-08T20:51:34.312Z,0.97
2019-03-08T20:54:00.931Z,0.70
2019-03-08T20:56:27.438Z,0.80
2019-03-08T20:58:54.006Z,3.10
2019-03-08T21:01:20.835Z,1.30
2019-03-08T21:03:47.385Z,3.00
2019-03-08T21:06:13.796Z,2.00
2019-03-08T21:08:40.392Z,0.83
2019-03-08T21:11:06.925Z,3.03
2019-03-08T21:13:33.319Z,1.13
2019-03-08T21:15:59.803Z,0.70
2019-03-08T21:18:26.487Z,2.20
2019-03-08T21:20:53.285Z,4.83
2019-03-08T21:23:19.774Z,1.30
2019-03-08T21:25:46.415Z,1.00
2019-03-08T21:28:12.897Z,0.90
2019-03-08T21:30:39.549Z,1.13
2019-03-08T21:33:06.021Z,0.80
2019-03-08T21:35:32.548Z,1.23
2019-03-08T21:37:59.077Z,0.93
2019-03-08T21:40:25.689Z,0.60
2019-03-08T21:42:52.210Z,2.70
2019-03-08T21:45:18.698Z,0.53
2019-03-08T21:47:45.523Z,1.57
2019-03-08T21:50:16.510Z,0.90
2019-03-08T21:52:43.018Z,1.90
2019-03-08T21:55:09.661Z,1.73
2019-03-08T21:57:36.192Z,1.70
2019-03-08T22:00:09.693Z,0.93
2019-03-08T22:02:36.278Z,0.63
2019-03-08T22:05:02.949Z,2.40
2019-03-08T22:07:29.210Z,1.17
2019-03-08T22:10:03.505Z,1.27
2019-03-08T22:12:30.125Z,2.37
2019-03-08T22:14:58.726Z,0.60
2019-03-08T22:17:25.825Z,2.37
2019-03-08T22:19:52.254Z,0.90
2019-03-08T22:22:19.739Z,1.33
2019-03-08T22:24:46.226Z,2.50
2019-03-08T22:27:12.553Z,1.17
2019-03-08T22:29:39.178Z,0.63
2019-03-08T22:32:05.764Z,1.70
2019-03-08T22:34:32.361Z,2.57
2019-03-08T22:36:58.772Z,1.70
2019-03-08T22:39:27.030Z,1.37
2019-03-08T22:41:53.402Z,0.77
2019-03-08T22:44:19.867Z,0.40
2019-03-08T22:46:46.269Z,1.90
2019-03-08T22:49:13.189Z,1.40
2019-03-08T22:51:39.570Z,2.03
2019-03-08T22:54:06.058Z,0.50
2019-03-08T22:56:32.631Z,5.40
2019-03-08T22:58:59.395Z,1.37
2019-03-08T23:01:27.977Z,1.40
2019-03-08T23:03:54.923Z,7.47
2019-03-08T23:06:21.431Z,2.37
2019-03-08T23:08:47.946Z,0.60
2019-03-08T23:11:14.540Z,1.50
2019-03-08T23:13:41.005Z,0.40
2019-03-08T23:16:07.652Z,1.90
2019-03-08T23:18:34.234Z,1.47
2019-03-08T23:21:00.746Z,2.30
2019-03-08T23:23:27.216Z,3.57
2019-03-08T23:26:05.614Z,1.33
2019-03-08T23:28:34.049Z,2.00
2019-03-08T23:31:05.352Z,0.53
2019-03-08T23:33:31.735Z,0.60
2019-03-08T23:35:58.262Z,2.53
2019-03-08T23:38:24.867Z,1.90
2019-03-08T23:40:51.355Z,1.00
2019-03-08T23:43:17.831Z,0.73
2019-03-08T23:45:44.343Z,0.53
2019-03-08T23:48:10.855Z,1.10
2019-03-08T23:50:37.269Z,0.60
2019-03-08T23:53:03.664Z,0.47
2019-03-08T23:55:30.096Z,1.77
2019-03-08T23:57:56.800Z,0.47
